Time;durP1;ratioP1;P1;durP2;ratioP2;P2;SDS_P1;SDS_P2;PMS_P1;PMS_P2;Temp;Humidity;BMP_temperature;BMP_pressure;BME280_temperature;BME280_humidity;BME280_pressure;Samples;Min_cycle;Max_cycle;Signal;HPM_P1;HPM_P2
2024/01/25 00:03:01;;;;;;;11.00;3.80;;;;;;;13.81;44.22;100971.47;10473658;28;20234;-37
2024/01/25 00:08:03;;;;;;;12.23;4.50;;;;;;;13.16;45.40;100954.59;10460185;28;20312;-38
2024/01/25 00:13:05;;;;;;;12.90;4.40;;;;;;;14.11;43.77;100987.81;10467696;28;20254;-36
2024/01/25 00:18:07;;;;;;;14.57;4.73;;;;;;;12.69;45.72;101033.28;10482632;28;20239;-36
2024/01/25 00:23:08;;;;;;;14.57;4.50;;;;;;;12.83;45.52;101021.84;10481632;28;20227;-36
2024/01/25 00:28:12;;;;;;;13.80;4.33;;;;;;;13.52;45.08;100982.91;10483051;28;20334;-36
2024/01/25 00:33:13;;;;;;;17.33;4.03;;;;;;;14.04;44.72;100890.78;10486011;28;21780;-36
2024/01/25 00:38:16;;;;;;;12.73;3.97;;;;;;;13.73;44.54;100940.06;10480394;28;20242;-36
2024/01/25 00:43:18;;;;;;;12.53;4.20;;;;;;;13.18;45.09;100978.63;10482307;28;20280;-36
2024/01/25 00:48:20;;;;;;;11.67;4.03;;;;;;;12.71;46.39;100942.63;10482234;28;20289;-36
2024/01/25 00:53:22;;;;;;;12.30;3.70;;;;;;;13.43;45.20;100931.00;10479046;28;20314;-36
2024/01/25 00:58:25;;;;;;;14.80;4.03;;;;;;;13.60;45.49;100878.81;10484518;28;20237;-36
2024/01/25 01:03:27;;;;;;;14.20;3.80;;;;;;;13.67;45.30;100913.91;10480740;28;20242;-36
2024/01/25 01:08:30;;;;;;;9.60;4.00;;;;;;;13.58;45.72;100890.75;10480995;28;20616;-36
2024/01/25 01:13:31;;;;;;;16.27;4.80;;;;;;;12.55;47.40;100944.31;10483228;28;20242;-36
2024/01/25 01:18:33;;;;;;;16.30;4.57;;;;;;;12.98;47.07;100887.66;10481875;28;20237;-36
2024/01/25 01:23:35;;;;;;;15.37;4.03;;;;;;;13.63;44.92;100982.50;10468229;28;20314;-36
2024/01/25 01:28:37;;;;;;;14.10;4.17;;;;;;;13.53;44.97;101009.63;10484124;28;20239;-36
2024/01/25 01:33:39;;;;;;;13.70;4.90;;;;;;;13.45;45.15;100970.16;10483664;28;20296;-36
2024/01/25 01:38:41;;;;;;;10.10;4.57;;;;;;;13.09;46.46;100954.47;10480900;28;20258;-36
2024/01/25 01:43:42;;;;;;;10.27;3.97;;;;;;;13.53;44.89;101012.31;10485941;28;20648;-36
2024/01/25 01:48:44;;;;;;;16.30;4.50;;;;;;;13.48;45.00;101030.81;10481106;28;20719;-36
2024/01/25 01:53:47;;;;;;;11.60;3.43;;;;;;;12.48;47.20;100897.66;10477869;28;20318;-36
2024/01/25 01:58:48;;;;;;;8.83;3.60;;;;;;;12.23;47.56;100923.66;10477342;28;20241;-36
2024/01/25 02:03:50;;;;;;;10.50;4.33;;;;;;;13.08;45.56;100950.09;10480123;28;20338;-36
2024/01/25 02:08:58;;;;;;;8.80;3.60;;;;;;;12.92;45.36;101009.22;10477922;28;20291;-36
2024/01/25 02:14:00;;;;;;;14.37;4.17;;;;;;;12.47;45.49;101062.44;10478684;28;20277;-36
2024/01/25 02:19:01;;;;;;;17.33;4.43;;;;;;;13.02;45.50;100917.69;10478278;28;20589;-36
2024/01/25 02:24:04;;;;;;;13.73;4.27;;;;;;;12.50;45.26;100972.66;10482826;28;21066;-36
2024/01/25 02:29:08;;;;;;;14.37;4.33;;;;;;;12.95;44.25;100940.91;10476225;28;20712;-36
2024/01/25 02:34:09;;;;;;;10.73;4.60;;;;;;;12.60;44.75;100976.03;10482199;28;20243;-36
2024/01/25 02:39:12;;;;;;;13.63;4.30;;;;;;;12.57;45.11;100927.19;10456673;28;20238;-36
2024/01/25 02:44:13;;;;;;;14.50;4.23;;;;;;;12.53;44.44;100938.25;10475735;28;20320;-36
2024/01/25 02:49:15;;;;;;;19.10;4.73;;;;;;;12.64;44.22;100949.69;10476933;28;20289;-36
2024/01/25 02:54:17;;;;;;;12.60;3.67;;;;;;;11.88;45.20;100908.69;10474013;28;20227;-36
2024/01/25 02:59:19;;;;;;;12.80;5.27;;;;;;;12.15;44.37;101023.78;10472496;28;20613;-36
2024/01/25 03:04:21;;;;;;;13.10;4.23;;;;;;;10.96;46.06;101062.03;10472276;28;20247;-36
2024/01/25 03:09:23;;;;;;;12.80;4.13;;;;;;;12.82;43.55;101004.06;10471870;28;20250;-36
2024/01/25 03:14:25;;;;;;;12.67;3.90;;;;;;;11.48;45.46;101063.06;10456398;28;20308;-36
2024/01/25 03:19:29;;;;;;;12.50;4.27;;;;;;;13.09;43.22;100972.41;10472072;28;20246;-36
2024/01/25 03:24:31;;;;;;;15.03;4.10;;;;;;;12.41;44.23;101006.69;10477224;28;20227;-36
2024/01/25 03:29:34;;;;;;;16.77;3.90;;;;;;;12.39;44.09;100968.47;10471519;28;20626;-36
2024/01/25 03:34:36;;;;;;;11.57;4.27;;;;;;;11.95;44.28;101065.31;10472243;28;20300;-36
2024/01/25 03:39:38;;;;;;;16.00;4.27;;;;;;;12.04;43.98;101060.81;10471049;28;20242;-36
2024/01/25 03:44:42;;;;;;;14.70;4.57;;;;;;;12.83;43.25;101056.75;10477931;28;20231;-36
2024/01/25 03:49:44;;;;;;;13.40;4.17;;;;;;;13.51;42.70;100955.16;10476623;28;20719;-37
2024/01/25 03:54:46;;;;;;;16.17;4.47;;;;;;;13.11;43.50;101005.34;10477456;28;20219;-37
2024/01/25 03:59:48;;;;;;;13.27;4.60;;;;;;;14.13;41.12;101125.75;10482371;28;20203;-36
2024/01/25 04:04:50;;;;;;;15.57;4.47;;;;;;;14.38;40.90;101126.47;10483928;28;20665;-36
2024/01/25 04:09:52;;;;;;;13.57;5.00;;;;;;;13.53;42.35;101130.63;10483902;28;20211;-37
2024/01/25 04:14:54;;;;;;;14.97;4.57;;;;;;;13.62;42.06;101179.84;10484177;28;20664;-36
2024/01/25 04:19:56;;;;;;;13.43;4.93;;;;;;;14.35;41.83;101003.78;10487264;28;20215;-36
2024/01/25 04:24:57;;;;;;;11.77;4.27;;;;;;;13.65;41.81;101184.91;10484809;28;20231;-36
2024/01/25 04:29:59;;;;;;;12.30;5.10;;;;;;;12.93;43.64;101113.84;10480240;28;20207;-36
2024/01/25 04:35:01;;;;;;;13.10;5.33;;;;;;;13.54;42.90;101073.13;10486737;28;20248;-36
2024/01/25 04:40:05;;;;;;;11.37;4.47;;;;;;;12.77;43.52;101158.66;10484232;28;20208;-36
2024/01/25 04:45:07;;;;;;;14.63;5.37;;;;;;;13.46;43.20;101046.25;10481147;28;20325;-36
2024/01/25 04:50:09;;;;;;;13.83;6.20;;;;;;;13.58;42.67;101124.72;10463447;28;20207;-36
2024/01/25 04:55:11;;;;;;;17.70;6.43;;;;;;;12.95;43.45;101127.09;10478834;28;20631;-36
2024/01/25 05:05:21;;;;;;;21.83;8.57;;;;;;;9.63;51.05;100934.34;10501445;27;20821;-66
2024/01/25 05:10:25;;;;;;;25.00;10.63;;;;;;;9.57;50.91;100960.66;10467423;28;20521;-66
2024/01/25 05:15:27;;;;;;;21.53;9.20;;;;;;;9.80;50.38;100952.22;10461153;28;20628;-66
2024/01/25 05:20:32;;;;;;;15.63;6.00;;;;;;;10.42;49.31;100914.88;10463387;28;20325;-66
2024/01/25 05:25:34;;;;;;;14.13;4.93;;;;;;;9.68;50.33;100996.19;10463428;28;20605;-66
2024/01/25 05:30:36;;;;;;;13.67;5.00;;;;;;;9.51;50.55;101012.03;10465047;28;20247;-66
2024/01/25 05:35:38;;;;;;;20.07;6.93;;;;;;;10.02;49.72;100968.84;10472134;28;20273;-66
2024/01/25 05:40:40;;;;;;;17.30;4.97;;;;;;;9.59;50.01;101022.81;10505530;28;20289;-66
2024/01/25 05:45:41;;;;;;;22.13;6.10;;;;;;;10.73;48.39;100945.69;10508730;28;20349;-66
2024/01/25 05:50:43;;;;;;;17.43;7.50;;;;;;;10.61;48.30;101006.69;10507005;28;20234;-66
2024/01/25 05:55:45;;;;;;;16.47;7.20;;;;;;;10.09;48.90;101036.78;10504750;28;20237;-66
2024/01/25 06:00:46;;;;;;;14.57;7.73;;;;;;;10.18;48.63;101068.00;10505962;28;20239;-66
2024/01/25 06:05:48;;;;;;;16.57;7.10;;;;;;;10.76;48.06;100969.53;10507872;28;20317;-65
2024/01/25 06:10:50;;;;;;;14.93;5.27;;;;;;;11.83;46.58;100943.22;10504734;28;20234;-65
2024/01/25 06:15:52;;;;;;;18.43;9.10;;;;;;;10.78;47.14;101091.53;10482821;28;20239;-66
2024/01/25 06:20:53;;;;;;;31.53;15.53;;;;;;;10.55;47.98;101063.53;10482465;28;20228;-66
2024/01/25 06:25:55;;;;;;;27.50;13.60;;;;;;;11.25;46.68;101001.97;10482471;28;20277;-66
2024/01/25 06:30:57;;;;;;;19.63;5.27;;;;;;;10.00;48.84;101072.47;10476975;28;20238;-66
2024/01/25 06:36:00;;;;;;;16.20;5.03;;;;;;;10.72;47.26;101041.25;10480942;28;20258;-65
2024/01/25 06:41:01;;;;;;;15.13;6.20;;;;;;;10.22;48.39;101057.84;10476461;28;20636;-66
2024/01/25 06:46:05;;;;;;;19.37;6.03;;;;;;;10.12;48.62;100999.91;10478473;28;20238;-66
2024/01/25 06:51:09;;;;;;;15.63;4.20;;;;;;;10.13;49.07;100976.66;10473993;28;20656;-65
2024/01/25 06:56:11;;;;;;;17.57;5.10;;;;;;;9.56;49.89;101030.28;10477604;28;20259;-65
2024/01/25 07:01:13;;;;;;;17.53;6.03;;;;;;;8.48;51.58;101139.84;10477153;28;20330;-65
2024/01/25 07:06:17;;;;;;;10.80;4.97;;;;;;;9.26;51.10;100983.31;10474831;28;20232;-66
2024/01/25 07:11:19;;;;;;;18.43;5.37;;;;;;;8.68;51.40;101107.88;10475506;28;20227;-65
2024/01/25 07:16:21;;;;;;;18.93;5.70;;;;;;;9.07;51.01;101017.09;10472280;28;20231;-65
2024/01/25 07:21:23;;;;;;;14.47;4.67;;;;;;;9.18;51.01;100976.03;10475605;28;20260;-65
2024/01/25 07:26:25;;;;;;;16.60;5.20;;;;;;;8.99;51.04;101075.72;10476311;28;20335;-65
2024/01/25 07:31:27;;;;;;;12.07;4.73;;;;;;;9.70;50.81;100924.72;10475327;28;20283;-67
2024/01/25 07:36:29;;;;;;;20.13;5.97;;;;;;;9.40;51.06;100985.53;10476478;28;20232;-65
2024/01/25 07:41:31;;;;;;;17.63;5.00;;;;;;;9.25;51.21;100990.50;10474156;28;20234;-64
2024/01/25 07:46:32;;;;;;;16.67;5.17;;;;;;;8.80;52.32;101052.53;10478882;28;20254;-65
2024/01/25 07:51:34;;;;;;;18.17;5.67;;;;;;;10.21;49.28;101107.81;10474972;28;20225;-65
2024/01/25 07:56:36;;;;;;;19.57;4.77;;;;;;;10.22;50.45;100972.22;10474903;28;21014;-66
2024/01/25 08:01:38;;;;;;;10.10;4.13;;;;;;;9.39;52.95;100933.06;10475602;28;20330;-66
2024/01/25 08:06:40;;;;;;;16.33;5.57;;;;;;;8.40;54.98;100984.97;10476921;28;20412;-66
2024/01/25 08:11:42;;;;;;;12.23;4.30;;;;;;;9.15;53.55;100966.47;10475789;28;20310;-66
2024/01/25 08:16:44;;;;;;;13.60;4.47;;;;;;;10.21;51.55;100950.00;10472798;28;20321;-66
2024/01/25 08:21:46;;;;;;;13.47;4.90;;;;;;;9.88;51.37;101119.94;10476960;28;20634;-66
2024/01/25 08:26:49;;;;;;;12.40;4.33;;;;;;;12.24;47.56;101083.69;10497168;28;20414;-66
2024/01/25 08:31:51;;;;;;;11.93;4.23;;;;;;;10.65;50.57;101083.03;10515118;28;20227;-66
2024/01/25 08:36:53;;;;;;;12.37;4.00;;;;;;;9.54;51.44;101235.38;10518244;28;20233;-66
2024/01/25 08:41:57;;;;;;;8.20;4.00;;;;;;;10.72;50.50;101096.63;10498135;28;20230;-66
2024/01/25 08:46:58;;;;;;;8.13;3.80;;;;;;;10.75;49.81;101185.56;10515263;28;20757;-66
2024/01/25 08:52:00;;;;;;;15.87;5.07;;;;;;;10.78;50.15;101141.56;10514984;28;20254;-66
2024/01/25 08:57:02;;;;;;;11.67;4.43;;;;;;;11.51;49.46;101044.81;10515599;28;20249;-66
2024/01/25 09:02:05;;;;;;;12.23;3.97;;;;;;;10.19;51.82;101179.38;10511492;28;20242;-66
2024/01/25 09:07:07;;;;;;;9.57;4.00;;;;;;;11.41;49.91;101070.91;10511010;28;20322;-66
2024/01/25 09:12:11;;;;;;;13.03;3.80;;;;;;;11.06;50.36;101132.44;10518525;28;20739;-66
2024/01/25 09:17:13;;;;;;;10.53;4.57;;;;;;;11.60;50.20;101037.66;10515008;28;20328;-66
2024/01/25 09:22:17;;;;;;;14.00;4.10;;;;;;;10.92;50.59;101157.09;10516180;28;20238;-66
2024/01/25 09:27:19;;;;;;;10.87;4.17;;;;;;;11.18;49.95;101191.16;10513268;28;20322;-66
2024/01/25 09:32:22;;;;;;;10.97;4.13;;;;;;;10.61;50.55;101170.78;10499672;28;20288;-66
2024/01/25 09:37:25;;;;;;;8.30;3.67;;;;;;;12.19;48.61;101113.69;10517381;28;20238;-66
2024/01/25 09:42:27;;;;;;;10.50;4.37;;;;;;;11.72;48.97;101228.63;10514312;28;20240;-66
2024/01/25 09:47:29;;;;;;;11.97;4.93;;;;;;;11.44;49.55;101205.44;10515062;28;20292;-66
2024/01/25 09:52:32;;;;;;;11.43;4.40;;;;;;;11.49;49.79;101218.38;10519491;28;20223;-67
2024/01/25 09:57:37;;;;;;;11.50;4.67;;;;;;;11.95;49.48;101102.88;10522289;28;20234;-66
2024/01/25 10:02:39;;;;;;;13.47;4.00;;;;;;;11.89;48.53;101241.13;10520990;28;20246;-67
2024/01/25 10:07:43;;;;;;;15.03;4.47;;;;;;;11.14;49.09;101272.84;10523503;28;20329;-66
2024/01/25 10:12:45;;;;;;;15.20;4.80;;;;;;;11.47;49.01;101225.72;10519242;28;20235;-67
2024/01/25 10:17:47;;;;;;;13.23;4.50;;;;;;;11.57;49.02;101236.34;10497318;28;20257;-67
2024/01/25 10:23:09;;;;;;;10.93;4.73;;;;;;;12.52;47.42;101191.66;10520540;28;20239;-67
2024/01/25 10:28:12;;;;;;;12.63;4.57;;;;;;;11.18;48.81;101263.47;10521034;28;20266;-67
2024/01/25 10:33:15;;;;;;;12.40;5.20;;;;;;;12.10;47.46;101264.91;10517431;28;20309;-67
2024/01/25 10:38:17;;;;;;;12.73;4.17;;;;;;;11.83;48.49;101174.72;10484013;22;20236;-37
2024/01/25 10:43:19;;;;;;;11.33;4.43;;;;;;;11.10;48.79;101272.25;10441160;28;20603;-36
2024/01/25 10:48:21;;;;;;;12.23;4.67;;;;;;;12.90;46.46;101167.91;10473081;28;20345;-36
2024/01/25 10:53:24;;;;;;;10.90;4.60;;;;;;;12.97;46.23;101186.88;10469678;28;20246;-36
2024/01/25 10:58:35;;;;;;;12.70;3.80;;;;;;;12.46;47.14;101176.16;10473686;28;20245;-35
2024/01/25 11:06:22;;;;;;;10.20;3.90;;;;;;;10.25;52.17;101063.72;10510399;27;20808;-73
2024/01/25 11:11:24;;;;;;;12.13;4.13;;;;;;;9.77;52.13;101112.94;10469760;28;20667;-73
2024/01/25 11:16:31;;;;;;;13.90;4.43;;;;;;;10.28;51.49;101034.00;10475088;28;20263;-74
2024/01/25 11:21:41;;;;;;;12.43;4.30;;;;;;;10.52;50.57;101150.31;10474738;28;20227;-74
2024/01/25 11:26:46;;;;;;;15.03;4.63;;;;;;;10.75;49.53;101149.88;10471043;28;20235;-74
2024/01/25 11:31:50;;;;;;;17.40;4.27;;;;;;;10.76;49.34;101164.97;10480948;28;20215;-73
2024/01/25 11:36:52;;;;;;;16.43;4.53;;;;;;;10.99;48.82;101154.66;10478804;28;20239;-73
2024/01/25 11:41:54;;;;;;;16.23;5.03;;;;;;;11.45;47.77;101182.16;10469678;28;20230;-74
2024/01/25 11:46:56;;;;;;;11.13;4.07;;;;;;;10.64;49.50;101149.09;10479546;28;20259;-74
2024/01/25 11:51:58;;;;;;;13.50;4.87;;;;;;;10.51;49.83;101132.56;10474889;28;20292;-74
2024/01/25 11:57:00;;;;;;;11.30;4.83;;;;;;;10.65;49.57;101145.44;10473407;28;20239;-74
2024/01/25 12:02:03;;;;;;;10.90;4.37;;;;;;;10.99;48.30;101119.84;10469632;28;20242;-73
2024/01/25 12:07:05;;;;;;;8.17;4.00;;;;;;;11.43;47.42;101141.25;10479084;28;20262;-74
2024/01/25 12:12:09;;;;;;;8.83;3.90;;;;;;;11.49;47.36;101174.63;10473565;28;20546;-74
2024/01/25 12:17:11;;;;;;;10.20;3.63;;;;;;;12.51;46.29;101034.25;10446932;28;20239;-74
2024/01/25 12:22:19;;;;;;;11.70;3.70;;;;;;;9.89;49.53;101196.50;10445087;28;20232;-74
2024/01/25 12:27:22;;;;;;;8.63;4.13;;;;;;;10.11;50.14;101057.06;10440624;28;20243;-74
2024/01/25 12:32:24;;;;;;;14.63;4.50;;;;;;;10.51;49.16;101135.22;10440248;28;20318;-74
2024/01/25 12:37:25;;;;;;;13.03;4.00;;;;;;;11.61;47.57;101058.13;10444704;28;20289;-75
2024/01/25 12:42:27;;;;;;;9.40;3.90;;;;;;;12.31;47.37;101008.72;10440383;28;20882;-75
2024/01/25 12:47:29;;;;;;;10.00;4.37;;;;;;;12.30;46.36;101115.22;10447751;28;20243;-74
2024/01/25 12:52:32;;;;;;;11.53;4.77;;;;;;;11.67;46.76;101202.28;10438038;28;20388;-74
2024/01/25 12:57:34;;;;;;;12.63;4.80;;;;;;;12.21;46.85;101064.38;10453001;28;20236;-74
2024/01/25 13:02:36;;;;;;;14.83;4.90;;;;;;;11.74;46.87;101152.41;10446697;28;20240;-74
2024/01/25 13:07:38;;;;;;;12.10;3.83;;;;;;;11.95;47.02;101119.78;10447450;28;20630;-74
2024/01/25 13:12:40;;;;;;;10.77;4.57;;;;;;;12.47;46.67;101034.75;10441502;28;20316;-74
2024/01/25 13:17:42;;;;;;;14.60;5.63;;;;;;;12.80;45.44;101088.50;10442573;28;20236;-74
2024/01/25 13:22:43;;;;;;;12.97;4.60;;;;;;;12.91;45.44;101067.50;10446762;28;20288;-74
2024/01/25 13:27:45;;;;;;;11.67;3.80;;;;;;;12.78;45.22;101150.44;10438343;28;20236;-74
2024/01/25 13:32:46;;;;;;;9.53;3.77;;;;;;;13.21;45.04;101107.28;10444907;28;20224;-74
2024/01/25 13:37:48;;;;;;;10.83;3.53;;;;;;;13.35;45.23;101103.09;10439585;28;20243;-74
2024/01/25 13:42:50;;;;;;;8.77;3.70;;;;;;;10.38;50.02;101217.69;10439785;28;20231;-74
2024/01/25 13:47:52;;;;;;;8.10;3.30;;;;;;;11.43;50.34;100989.31;10440221;28;20263;-75
2024/01/25 13:52:54;;;;;;;10.30;3.23;;;;;;;12.49;47.85;101033.59;10444988;28;20259;-74
2024/01/25 13:57:55;;;;;;;10.80;3.83;;;;;;;11.22;48.53;101122.84;10442383;28;20236;-74
2024/01/25 14:02:57;;;;;;;12.43;3.77;;;;;;;12.33;47.29;101041.59;10439989;28;20235;-74
2024/01/25 14:07:59;;;;;;;11.37;3.60;;;;;;;11.58;48.26;101090.59;10461100;28;20267;-74
2024/01/25 14:13:02;;;;;;;7.13;2.80;;;;;;;9.06;54.31;101114.19;10441692;28;20224;-74
2024/01/25 14:18:04;;;;;;;5.10;2.90;;;;;;;10.90;52.15;100950.22;10442531;28;20239;-74
2024/01/25 14:23:06;;;;;;;6.37;3.07;;;;;;;9.58;55.62;101023.84;10443367;28;20231;-74
2024/01/25 14:28:07;;;;;;;6.23;3.17;;;;;;;10.02;55.56;100891.31;10441155;28;20715;-74
2024/01/25 14:33:09;;;;;;;7.17;3.50;;;;;;;9.82;55.90;101000.19;10435866;28;20766;-75
2024/01/25 14:38:11;;;;;;;7.50;3.20;;;;;;;11.09;53.71;100933.06;10435545;28;20319;-73
2024/01/25 14:43:13;;;;;;;5.20;2.97;;;;;;;10.76;55.02;100895.38;10424407;28;20227;-74
2024/01/25 14:48:15;;;;;;;5.47;2.87;;;;;;;11.48;53.27;100910.28;10442079;28;20236;-74
2024/01/25 14:53:18;;;;;;;6.07;3.30;;;;;;;10.44;54.98;101011.88;10433848;28;20235;-72
2024/01/25 14:58:22;;;;;;;8.03;3.27;;;;;;;11.51;53.90;100873.25;10437661;28;20718;-71
2024/01/25 15:03:24;;;;;;;3.37;2.83;;;;;;;9.39;57.37;100990.00;10435064;28;20354;-73
2024/01/25 15:08:26;;;;;;;6.87;3.40;;;;;;;11.67;54.09;100842.16;10434416;28;20698;-72
2024/01/25 15:13:27;;;;;;;7.97;3.47;;;;;;;10.63;56.72;100849.44;10440909;28;20539;-71
2024/01/25 15:18:29;;;;;;;8.37;5.27;;;;;;;11.24;54.57;100891.28;10438973;28;20244;-72
2024/01/25 15:23:31;;;;;;;7.00;3.77;;;;;;;12.40;51.89;100907.53;10437448;28;20227;-72
2024/01/25 15:28:34;;;;;;;4.87;3.70;;;;;;;11.68;52.73;101016.28;10439205;28;20873;-72
2024/01/25 15:33:36;;;;;;;4.60;3.43;;;;;;;12.76;50.79;100916.09;10436033;28;20780;-71
2024/01/25 15:38:39;;;;;;;4.30;3.50;;;;;;;10.06;55.67;101042.47;10440004;28;20252;-71
2024/01/25 15:43:41;;;;;;;6.33;2.93;;;;;;;12.88;51.09;100895.06;10433145;28;20232;-72
2024/01/25 15:48:43;;;;;;;5.63;3.50;;;;;;;12.07;52.50;100929.88;10433775;28;20965;-71
2024/01/25 15:53:45;;;;;;;6.10;3.77;;;;;;;10.35;55.60;100994.09;10434241;28;20232;-74
2024/01/25 15:58:46;;;;;;;5.43;3.10;;;;;;;11.24;54.86;100901.16;10442867;28;21425;-76
2024/01/25 16:03:48;;;;;;;6.20;3.20;;;;;;;11.01;54.50;100979.38;10439851;28;20269;-74
2024/01/25 16:08:50;;;;;;;8.90;4.93;;;;;;;10.79;54.10;101093.22;10444546;28;20250;-74
2024/01/25 16:13:52;;;;;;;5.83;4.27;;;;;;;13.18;50.08;100906.06;10442548;28;20419;-71
2024/01/25 16:18:53;;;;;;;5.70;4.10;;;;;;;12.96;49.64;100990.91;10439999;28;20747;-73
2024/01/25 16:23:55;;;;;;;4.13;3.67;;;;;;;13.35;48.36;101007.16;10440855;28;20235;-71
2024/01/25 16:28:57;;;;;;;5.90;4.70;;;;;;;13.38;48.96;101030.16;10444037;28;20329;-70
2024/01/25 16:33:58;;;;;;;11.77;8.63;;;;;;;11.53;53.67;100970.44;10435648;28;20238;-70
2024/01/25 16:39:00;;;;;;;8.83;5.73;;;;;;;11.94;52.22;100986.66;10449403;23;20259;-37
2024/01/25 16:44:02;;;;;;;9.00;6.77;;;;;;;13.28;49.13;100974.75;10441705;28;20230;-37
2024/01/25 16:49:04;;;;;;;8.03;6.20;;;;;;;13.87;47.81;100983.38;10453001;28;20228;-36
2024/01/25 16:54:06;;;;;;;13.40;7.10;;;;;;;11.18;51.75;101118.81;10443799;28;20429;-37
2024/01/25 16:59:07;;;;;;;10.10;6.40;;;;;;;11.54;53.08;100990.03;10445260;28;20235;-37
2024/01/25 17:04:11;;;;;;;10.70;6.87;;;;;;;13.34;49.72;100949.00;10444739;28;20285;-37
2024/01/25 17:09:15;;;;;;;9.03;6.57;;;;;;;10.78;54.36;101019.25;10451724;28;20774;-37
2024/01/25 17:14:17;;;;;;;8.77;6.77;;;;;;;13.31;49.72;100945.84;10455857;28;20227;-37
2024/01/25 17:19:20;;;;;;;11.57;7.03;;;;;;;10.84;54.12;101098.94;10437654;28;20231;-37
2024/01/25 17:24:22;;;;;;;9.20;6.87;;;;;;;11.65;53.56;100914.72;10454068;28;20243;-36
2024/01/25 17:29:24;;;;;;;9.20;7.13;;;;;;;11.38;54.47;100931.84;10448763;28;20415;-36
2024/01/25 17:34:26;;;;;;;7.80;6.10;;;;;;;10.19;55.91;101026.91;10430345;28;20733;-37
2024/01/25 17:39:27;;;;;;;8.10;6.60;;;;;;;12.18;52.99;100870.50;10455793;28;20331;-37
2024/01/25 17:44:29;;;;;;;7.53;6.23;;;;;;;13.39;49.44;100937.75;10450087;28;20228;-37
2024/01/25 17:49:31;;;;;;;8.37;6.40;;;;;;;12.74;49.92;101007.56;10450503;28;20324;-37
2024/01/25 17:54:33;;;;;;;7.73;6.13;;;;;;;11.48;53.24;100974.63;10449922;28;20220;-37
2024/01/25 17:59:35;;;;;;;11.27;6.60;;;;;;;11.93;52.52;100970.72;10458170;28;20268;-37
2024/01/25 18:04:37;;;;;;;9.80;6.77;;;;;;;12.05;51.57;101047.25;10448902;28;20355;-37
2024/01/25 18:09:38;;;;;;;9.87;7.63;;;;;;;13.69;48.53;100924.50;10458236;28;20262;-37
2024/01/25 18:14:40;;;;;;;9.93;6.77;;;;;;;13.62;48.41;100995.09;10451759;28;20249;-36
2024/01/25 18:19:42;;;;;;;8.57;7.00;;;;;;;13.47;48.25;101029.13;10449020;28;20318;-37
2024/01/25 18:24:44;;;;;;;8.90;6.70;;;;;;;13.10;49.26;101019.78;10435271;28;20742;-37
2024/01/25 18:29:46;;;;;;;9.60;6.80;;;;;;;12.35;51.62;100957.22;10450072;28;20214;-37
2024/01/25 18:34:48;;;;;;;9.00;6.90;;;;;;;12.02;53.04;100891.97;10453276;28;20228;-37
2024/01/25 18:39:50;;;;;;;9.30;5.93;;;;;;;11.19;53.94;100949.88;10445161;28;20264;-36
2024/01/25 18:44:51;;;;;;;10.10;6.90;;;;;;;11.91;52.72;100981.66;10447491;28;20238;-37
2024/01/25 18:49:53;;;;;;;10.83;8.93;;;;;;;12.15;51.91;100932.56;10452835;28;20591;-36
2024/01/25 18:54:55;;;;;;;10.23;6.87;;;;;;;12.98;49.48;100960.19;10450968;28;20689;-37
2024/01/25 18:59:58;;;;;;;7.93;5.87;;;;;;;12.89;50.58;100951.31;10455024;28;20231;-37
2024/01/25 19:05:00;;;;;;;10.33;6.60;;;;;;;10.37;55.59;100970.69;10456018;28;20307;-36
2024/01/25 19:10:01;;;;;;;7.63;6.37;;;;;;;12.22;52.34;100894.31;10452962;28;20212;-37
2024/01/25 19:15:06;;;;;;;9.57;6.67;;;;;;;11.69;53.10;100929.44;10426603;28;20590;-37
2024/01/25 19:20:09;;;;;;;9.83;6.53;;;;;;;12.26;51.91;100919.81;10437959;28;20715;-37
2024/01/25 19:25:11;;;;;;;8.70;7.43;;;;;;;11.84;53.11;100939.56;10457509;28;20235;-37
2024/01/25 19:30:15;;;;;;;9.30;6.37;;;;;;;10.79;55.51;100897.75;10460867;28;20242;-36
2024/01/25 19:35:18;;;;;;;8.37;6.50;;;;;;;11.67;53.62;100910.00;10460461;28;20246;-36
2024/01/25 19:40:20;;;;;;;8.93;7.30;;;;;;;11.19;54.58;100907.00;10455065;28;20212;-36
2024/01/25 19:45:22;;;;;;;13.23;8.47;;;;;;;10.67;55.46;100987.34;10451611;28;20250;-36
2024/01/25 19:50:23;;;;;;;9.27;7.80;;;;;;;11.22;54.24;100943.31;10454861;28;20234;-36
2024/01/25 19:55:26;;;;;;;9.80;7.90;;;;;;;11.95;52.45;100969.59;10459511;28;20282;-37
2024/01/25 20:00:28;;;;;;;13.00;8.80;;;;;;;11.93;53.24;100915.28;10457189;28;20313;-36
2024/01/25 20:05:31;;;;;;;10.33;8.73;;;;;;;10.98;55.09;100990.41;10459165;28;20231;-37
2024/01/25 20:10:33;;;;;;;10.33;9.10;;;;;;;11.57;54.75;100861.03;10453820;28;20227;-36
2024/01/25 20:15:35;;;;;;;12.13;9.53;;;;;;;12.23;52.36;100981.84;10454491;28;20277;-36
2024/01/25 20:20:37;;;;;;;12.43;9.83;;;;;;;14.10;48.50;100921.53;10438727;28;20232;-37
2024/01/25 20:25:49;;;;;;;13.87;9.37;;;;;;;12.51;52.25;100905.38;10454002;28;20743;-36
2024/01/25 20:30:51;;;;;;;15.93;9.57;;;;;;;12.90;51.74;100907.31;10457608;28;20239;-36
2024/01/25 20:35:53;;;;;;;14.43;10.17;;;;;;;12.80;50.63;101026.72;10459988;28;22111;-36
2024/01/25 20:40:54;;;;;;;12.67;9.80;;;;;;;12.23;51.64;101027.47;10436087;28;20239;-36
2024/01/25 20:45:56;;;;;;;12.50;9.83;;;;;;;12.24;51.18;101093.56;10452940;28;20717;-36
2024/01/25 20:50:58;;;;;;;12.43;10.57;;;;;;;13.54;49.70;100935.97;10455034;28;20235;-36
2024/01/25 20:56:00;;;;;;;14.40;11.13;;;;;;;13.27;50.42;100961.44;10454526;28;20250;-36
2024/01/25 21:01:03;;;;;;;16.47;10.83;;;;;;;12.80;51.03;100998.00;10461970;28;20315;-36
2024/01/25 21:06:05;;;;;;;13.77;10.43;;;;;;;13.52;49.47;100964.91;10448784;28;20303;-36
2024/01/25 21:11:12;;;;;;;14.80;12.10;;;;;;;13.78;48.94;100953.00;10451219;28;20232;-36
2024/01/25 21:16:15;;;;;;;16.07;13.00;;;;;;;12.38;51.65;101041.94;10449616;28;20534;-36
2024/01/25 21:21:16;;;;;;;12.63;10.97;;;;;;;12.18;51.38;101079.81;10456742;28;20215;-36
2024/01/25 21:26:18;;;;;;;17.53;13.27;;;;;;;12.66;51.65;100943.13;10453188;28;20239;-36
2024/01/25 21:31:20;;;;;;;15.10;12.47;;;;;;;12.24;52.15;100976.31;10449120;28;20238;-36
2024/01/25 21:36:22;;;;;;;16.07;12.80;;;;;;;11.89;53.31;100929.16;10450825;28;20342;-36
2024/01/25 21:41:23;;;;;;;19.93;12.50;;;;;;;11.74;53.03;100991.50;10446410;28;20212;-36
2024/01/25 21:46:25;;;;;;;17.10;12.83;;;;;;;13.69;49.62;100900.28;10449340;28;20330;-36
2024/01/25 21:51:27;;;;;;;18.60;13.13;;;;;;;12.91;50.97;100978.84;10446232;28;20262;-36
2024/01/25 21:56:29;;;;;;;17.30;14.00;;;;;;;13.42;49.33;100975.03;10457553;28;20249;-36
2024/01/25 22:01:31;;;;;;;17.60;13.67;;;;;;;12.50;51.63;100992.31;10450969;28;20235;-36
2024/01/25 22:06:33;;;;;;;16.47;13.03;;;;;;;11.90;52.89;100944.28;10444993;28;20308;-36
2024/01/25 22:11:35;;;;;;;17.17;12.97;;;;;;;12.35;53.59;100849.00;10432869;28;20211;-36
2024/01/25 22:16:37;;;;;;;19.10;14.20;;;;;;;11.54;54.97;100880.13;10453365;28;20227;-36
2024/01/25 22:21:38;;;;;;;18.27;15.07;;;;;;;11.36;53.98;101020.44;10428920;28;20615;-36
2024/01/25 22:26:40;;;;;;;19.07;14.13;;;;;;;11.55;54.16;100952.34;10445728;28;20957;-36
2024/01/25 22:31:42;;;;;;;17.83;14.00;;;;;;;12.23;54.02;100823.53;10446562;28;20252;-36
2024/01/25 22:36:44;;;;;;;19.67;14.53;;;;;;;12.15;53.86;100825.22;10435328;28;20243;-36
2024/01/25 22:41:45;;;;;;;15.10;13.27;;;;;;;10.34;57.82;100837.22;10400954;28;20254;-36
2024/01/25 22:46:49;;;;;;;17.73;13.63;;;;;;;10.45;57.31;100858.38;10397789;28;20259;-36
2024/01/25 22:52:03;;;;;;;17.10;13.20;;;;;;;12.99;51.56;100853.56;10400476;28;20286;-36
2024/01/25 22:57:05;;;;;;;15.37;12.83;;;;;;;11.50;54.07;100906.41;10402325;28;20232;-36
2024/01/25 23:02:07;;;;;;;17.77;12.73;;;;;;;12.34;52.26;100917.94;10384959;28;20286;-36
2024/01/25 23:07:09;;;;;;;15.33;13.17;;;;;;;12.00;52.33;100963.72;10402296;28;20232;-36